createdAt,value
2022-10-10T00:01:33.575Z,100940.91
2022-10-10T00:04:02.442Z,100940.91
2022-10-10T00:06:33.272Z,100926.94
2022-10-10T00:09:02.070Z,100929.25
2022-10-10T00:11:33.110Z,100932.25
2022-10-10T00:14:01.220Z,100926.25
2022-10-10T00:16:29.541Z,100931.59
2022-10-10T00:18:57.752Z,100931.94
2022-10-10T00:21:26.065Z,100916.66
2022-10-10T00:23:54.211Z,100927.25
2022-10-10T00:26:22.396Z,100919.16
2022-10-10T00:28:52.385Z,100922.28
2022-10-10T00:31:20.516Z,100917.94
2022-10-10T00:33:48.734Z,100918.16
2022-10-10T00:36:16.768Z,100913.81
2022-10-10T00:38:49.960Z,100915.97
2022-10-10T00:41:18.382Z,100916.16
2022-10-10T00:47:00.604Z,100897.69
2022-10-10T00:49:32.013Z,100898.50
2022-10-10T00:52:02.293Z,100902.50
2022-10-10T00:54:33.303Z,100898.38
2022-10-10T00:57:05.954Z,100904.03
2022-10-10T00:59:38.205Z,100903.69
2022-10-10T01:02:08.587Z,100899.06
2022-10-10T01:04:44.366Z,100906.91
2022-10-10T01:07:20.239Z,100894.91
2022-10-10T01:09:50.893Z,100900.41
2022-10-10T01:12:25.831Z,100889.09
2022-10-10T01:15:04.513Z,100887.59
2022-10-10T01:17:41.265Z,100892.44
2022-10-10T01:20:53.848Z,100893.44
2022-10-10T01:23:52.471Z,100886.63
2022-10-10T01:26:39.255Z,100880.78
2022-10-10T01:29:31.869Z,100879.28
2022-10-10T01:32:05.786Z,100880.28
2022-10-10T01:34:43.249Z,100876.63
2022-10-10T01:37:20.808Z,100870.31
2022-10-10T01:39:56.418Z,100878.31
2022-10-10T01:42:29.134Z,100877.31
2022-10-10T01:44:59.543Z,100878.81
2022-10-10T01:47:27.783Z,100878.63
2022-10-10T01:50:04.047Z,100875.97
2022-10-10T01:52:42.712Z,100876.97
2022-10-10T01:55:39.923Z,100878.81
2022-10-10T01:58:20.234Z,100878.13
2022-10-10T02:00:55.624Z,100868.66
2022-10-10T02:03:29.373Z,100865.31
2022-10-10T02:06:03.187Z,100868.19
2022-10-10T02:08:36.236Z,100864.84
2022-10-10T02:11:07.426Z,100857.03
2022-10-10T02:13:40.993Z,100847.38
2022-10-10T02:16:30.400Z,100855.38
2022-10-10T02:18:59.889Z,100850.22
2022-10-10T02:21:28.333Z,100848.38
2022-10-10T02:24:01.388Z,100846.88
2022-10-10T02:26:32.336Z,100842.56
2022-10-10T02:29:05.728Z,100844.41
2022-10-10T02:31:58.423Z,100845.38
2022-10-10T02:34:31.034Z,100847.06
2022-10-10T02:37:08.304Z,100846.38
2022-10-10T02:39:40.193Z,100848.88
2022-10-10T02:42:10.816Z,100847.22
2022-10-10T02:44:41.425Z,100845.22
2022-10-10T02:47:11.106Z,100831.91
2022-10-10T02:49:39.829Z,100842.41
2022-10-10T02:52:08.668Z,100843.41
2022-10-10T02:54:36.749Z,100843.41
2022-10-10T02:57:04.729Z,100841.72
2022-10-10T02:59:32.783Z,100837.41
2022-10-10T03:02:00.843Z,100838.41
2022-10-10T03:04:30.483Z,100841.25
2022-10-10T03:06:58.536Z,100835.75
2022-10-10T03:09:26.490Z,100835.75
2022-10-10T03:11:54.508Z,100839.41
2022-10-10T03:14:22.966Z,100835.09
2022-10-10T03:16:51.019Z,100828.13
2022-10-10T03:19:18.985Z,100830.78
2022-10-10T03:21:57.606Z,100832.44
2022-10-10T03:24:25.697Z,100824.63
2022-10-10T03:26:53.860Z,100826.47
2022-10-10T03:29:22.658Z,100824.78
2022-10-10T03:31:51.168Z,100823.97
2022-10-10T03:34:19.220Z,100822.13
2022-10-10T03:36:47.686Z,100826.78
2022-10-10T03:39:17.130Z,100823.28
2022-10-10T03:41:45.308Z,100822.47
2022-10-10T03:44:13.336Z,100812.31
2022-10-10T03:46:42.626Z,100810.50
2022-10-10T03:49:16.905Z,100809.66
2022-10-10T03:51:45.033Z,100809.66
2022-10-10T03:54:13.067Z,100800.84
2022-10-10T03:56:45.923Z,100802.88
2022-10-10T03:59:13.952Z,100795.72
2022-10-10T04:01:42.534Z,100803.19
2022-10-10T04:04:16.925Z,100792.72
2022-10-10T04:06:45.027Z,100796.53
2022-10-10T04:09:13.140Z,100796.53
2022-10-10T04:11:41.208Z,100791.56
2022-10-10T04:14:11.310Z,100793.06
2022-10-10T04:16:39.360Z,100788.72
2022-10-10T04:19:19.010Z,100789.56
2022-10-10T04:21:47.068Z,100804.38
2022-10-10T04:24:17.890Z,100790.06
2022-10-10T04:26:47.884Z,100785.25
2022-10-10T04:29:17.271Z,100789.72
2022-10-10T04:31:45.229Z,100788.75
2022-10-10T04:34:13.699Z,100788.75
2022-10-10T04:36:41.849Z,100786.72
2022-10-10T04:39:10.352Z,100788.75
2022-10-10T04:41:38.381Z,100789.72
2022-10-10T04:44:07.062Z,100781.09
2022-10-10T04:46:37.647Z,100779.59
2022-10-10T04:49:05.724Z,100772.59
2022-10-10T04:51:33.787Z,100771.78
2022-10-10T04:54:01.927Z,100770.44
2022-10-10T04:56:30.209Z,100766.78
2022-10-10T04:58:58.881Z,100773.09
2022-10-10T05:01:26.975Z,100769.81
2022-10-10T05:03:57.106Z,100766.16
2022-10-10T05:06:25.198Z,100763.81
2022-10-10T05:08:53.224Z,100755.69
2022-10-10T05:11:21.359Z,100749.53
2022-10-10T05:13:50.024Z,100747.69
2022-10-10T05:16:18.353Z,100751.34
2022-10-10T05:18:46.530Z,100745.22
2022-10-10T05:21:15.986Z,100746.72
2022-10-10T05:23:44.027Z,100742.22
2022-10-10T05:26:20.585Z,100744.69
2022-10-10T05:28:48.826Z,100743.69
2022-10-10T05:31:16.835Z,100744.34
2022-10-10T05:33:44.922Z,100743.34
2022-10-10T05:36:15.529Z,100738.69
2022-10-10T05:38:44.548Z,100731.38
2022-10-10T05:41:13.711Z,100736.38
2022-10-10T05:43:41.802Z,100729.50
2022-10-10T05:46:12.303Z,100731.84
2022-10-10T05:48:42.183Z,100729.84
2022-10-10T05:51:10.472Z,100726.66
2022-10-10T05:53:40.501Z,100732.63
2022-10-10T05:56:08.527Z,100731.25
2022-10-10T05:58:36.676Z,100733.22
2022-10-10T06:01:06.967Z,100734.00
2022-10-10T06:03:35.549Z,100716.75
2022-10-10T06:06:04.239Z,100729.31
2022-10-10T06:08:32.556Z,100714.81
2022-10-10T06:11:05.905Z,100720.41
2022-10-10T06:13:33.977Z,100726.88
2022-10-10T06:16:02.125Z,100730.31
2022-10-10T06:18:30.288Z,100716.63
2022-10-10T06:21:05.920Z,100708.78
2022-10-10T06:23:34.661Z,100708.88
2022-10-10T06:26:04.502Z,100704.69
2022-10-10T06:28:32.696Z,100713.63
2022-10-10T06:31:02.573Z,100699.75
2022-10-10T06:33:30.915Z,100689.84
2022-10-10T06:35:58.916Z,100685.50
2022-10-10T06:38:27.670Z,100680.91
2022-10-10T06:40:59.731Z,100689.84
2022-10-10T06:43:30.049Z,100679.00
2022-10-10T06:45:59.411Z,100683.88
2022-10-10T06:48:27.506Z,100682.97
2022-10-10T06:51:00.103Z,100688.84
2022-10-10T06:53:29.076Z,100686.31
2022-10-10T06:55:57.554Z,100676.53
2022-10-10T06:58:26.299Z,100676.44
2022-10-10T07:00:58.436Z,100677.34
2022-10-10T07:03:27.046Z,100666.75
2022-10-10T07:05:57.231Z,100652.47
2022-10-10T07:08:26.577Z,100656.69
2022-10-10T07:10:54.667Z,100659.81
2022-10-10T07:13:23.006Z,100658.31
2022-10-10T07:15:51.048Z,100653.84
2022-10-10T07:18:21.750Z,100661.59
2022-10-10T07:20:50.032Z,100649.69
2022-10-10T07:23:18.535Z,100653.72
2022-10-10T07:25:46.725Z,100655.41
2022-10-10T07:28:14.811Z,100657.56
2022-10-10T07:30:44.126Z,100647.97
2022-10-10T07:33:12.875Z,100652.16
2022-10-10T07:35:42.587Z,100650.41
2022-10-10T07:38:12.683Z,100646.56
2022-10-10T07:40:41.686Z,100654.03
2022-10-10T07:43:09.780Z,100653.69
2022-10-10T07:45:46.546Z,100652.16
2022-10-10T07:48:15.418Z,100644.78
2022-10-10T07:50:45.873Z,100648.75
2022-10-10T07:53:13.972Z,100646.34
2022-10-10T07:55:42.861Z,100641.44
2022-10-10T07:58:11.631Z,100623.81
2022-10-10T08:00:42.080Z,100625.28
2022-10-10T08:03:12.096Z,100632.09
2022-10-10T08:05:42.762Z,100626.16
2022-10-10T08:08:12.863Z,100618.97
2022-10-10T08:10:44.844Z,100628.03
2022-10-10T08:13:12.801Z,100623.34
2022-10-10T08:15:40.940Z,100611.78
2022-10-10T08:18:08.980Z,100604.81
2022-10-10T08:20:37.310Z,100605.63
2022-10-10T08:23:13.314Z,100598.84
2022-10-10T08:25:42.797Z,100596.59
2022-10-10T08:28:10.913Z,100595.94
2022-10-10T08:30:46.293Z,100586.22
2022-10-10T08:33:14.376Z,100583.56
2022-10-10T08:35:42.700Z,100587.28
2022-10-10T08:38:10.870Z,100567.25
2022-10-10T08:40:49.327Z,100569.94
2022-10-10T08:43:23.413Z,100579.63
2022-10-10T08:45:54.794Z,100576.31
2022-10-10T08:48:52.097Z,100572.59
2022-10-10T08:51:26.796Z,100556.47
2022-10-10T08:53:59.024Z,100557.44
2022-10-10T08:56:32.859Z,100559.47
2022-10-10T08:59:06.410Z,100551.16
2022-10-10T09:02:17.575Z,100549.00
2022-10-10T09:04:27.441Z,100545.94
2022-10-10T09:07:08.062Z,100546.50
2022-10-10T09:09:44.615Z,100539.16
2022-10-10T09:12:23.512Z,100528.38
2022-10-10T09:15:02.452Z,100531.41
2022-10-10T09:17:40.500Z,100523.47
2022-10-10T09:20:28.458Z,100524.81
2022-10-10T09:23:03.633Z,100516.25
2022-10-10T09:25:37.366Z,100528.41
2022-10-10T09:28:09.462Z,100518.38
2022-10-10T09:30:42.644Z,100506.81
2022-10-10T09:33:22.155Z,100503.69
2022-10-10T09:35:53.320Z,100498.06
2022-10-10T09:38:33.152Z,100497.56
2022-10-10T09:41:07.311Z,100496.59
2022-10-10T09:43:36.937Z,100493.44
2022-10-10T09:46:05.573Z,100495.09
2022-10-10T09:48:38.258Z,100487.63
2022-10-10T09:51:08.651Z,100499.97
2022-10-10T09:53:39.769Z,100477.47
2022-10-10T09:56:09.633Z,100489.66
2022-10-10T09:58:43.383Z,100494.72
2022-10-10T10:01:16.709Z,100486.22
2022-10-10T10:03:45.338Z,100475.22
2022-10-10T10:06:16.476Z,100459.13
2022-10-10T10:08:49.206Z,100465.56
2022-10-10T10:11:30.132Z,100465.94
2022-10-10T10:14:02.696Z,100459.28
2022-10-10T10:16:36.083Z,100455.13
2022-10-10T10:19:05.429Z,100449.25
2022-10-10T10:21:34.098Z,100445.72
2022-10-10T10:24:05.670Z,100432.25
2022-10-10T10:26:45.488Z,100445.59
2022-10-10T10:32:17.450Z,100429.97
2022-10-10T10:35:09.896Z,100424.88
2022-10-10T10:37:48.399Z,100425.63
2022-10-10T10:40:29.327Z,100412.84
2022-10-10T10:43:22.127Z,100425.66
2022-10-10T10:46:02.224Z,100417.91
2022-10-10T10:48:40.643Z,100417.34
2022-10-10T10:51:26.478Z,100409.38
2022-10-10T10:54:04.087Z,100415.50
2022-10-10T10:56:40.281Z,100411.50
2022-10-10T11:00:16.603Z,100403.19
2022-10-10T11:02:54.805Z,100397.94
2022-10-10T11:05:42.352Z,100395.25
2022-10-10T11:08:44.163Z,100394.56
2022-10-10T11:11:30.428Z,100393.16
2022-10-10T11:14:08.267Z,100381.47
2022-10-10T11:16:48.488Z,100384.72
2022-10-10T11:19:27.302Z,100371.59
2022-10-10T11:22:05.463Z,100367.59
2022-10-10T11:24:44.759Z,100363.53
2022-10-10T11:27:20.872Z,100347.34
2022-10-10T11:30:05.011Z,100352.63
2022-10-10T11:32:38.406Z,100337.84
2022-10-10T11:35:19.477Z,100324.91
2022-10-10T11:37:54.388Z,100335.25
2022-10-10T11:40:46.714Z,100328.31
2022-10-10T11:43:23.855Z,100315.28
2022-10-10T11:46:02.699Z,100321.38
2022-10-10T11:48:39.907Z,100311.81
2022-10-10T11:51:25.856Z,100296.56
2022-10-10T11:54:02.090Z,100301.00
2022-10-10T11:56:34.502Z,100296.75
2022-10-10T11:59:09.275Z,100281.44
2022-10-10T12:01:40.821Z,100285.31
2022-10-10T12:04:08.999Z,100273.69
2022-10-10T12:06:43.465Z,100269.69
2022-10-10T12:09:19.537Z,100268.41
2022-10-10T12:11:53.949Z,100261.94
2022-10-10T12:14:24.019Z,100249.00
2022-10-10T12:16:52.751Z,100242.78
2022-10-10T12:19:23.344Z,100240.91
2022-10-10T12:22:03.304Z,100257.44
2022-10-10T12:24:37.720Z,100248.50
2022-10-10T12:27:43.837Z,100228.47
2022-10-10T12:30:21.844Z,100225.53
2022-10-10T12:32:54.316Z,100224.94
2022-10-10T12:35:32.675Z,100218.72
2022-10-10T12:38:19.612Z,100203.59
2022-10-10T12:41:22.426Z,100201.94
2022-10-10T12:43:52.455Z,100195.50
2022-10-10T12:46:30.054Z,100191.72
2022-10-10T12:49:19.266Z,100190.31
2022-10-10T12:52:01.309Z,100185.16
2022-10-10T12:54:34.717Z,100174.59
2022-10-10T12:57:30.765Z,100175.66
2022-10-10T13:00:02.217Z,100170.75
2022-10-10T13:02:30.937Z,100176.25
2022-10-10T13:05:02.286Z,100167.25
2022-10-10T13:07:31.230Z,100168.81
2022-10-10T13:10:07.507Z,100168.81
2022-10-10T13:12:37.351Z,100159.78
2022-10-10T13:15:21.144Z,100157.34
2022-10-10T13:17:55.344Z,100149.97
2022-10-10T13:20:37.103Z,100153.00
2022-10-10T13:23:08.422Z,100147.59
2022-10-10T13:25:39.773Z,100149.22
2022-10-10T13:28:17.906Z,100139.59
2022-10-10T13:30:46.961Z,100130.19
2022-10-10T13:33:18.611Z,100131.00
2022-10-10T13:35:48.118Z,100120.22
2022-10-10T13:38:17.475Z,100127.00
2022-10-10T13:40:47.698Z,100127.56
2022-10-10T13:43:19.513Z,100119.44
2022-10-10T13:45:49.807Z,100113.25
2022-10-10T13:48:40.182Z,100108.34
2022-10-10T13:51:11.105Z,100106.72
2022-10-10T13:53:54.098Z,100114.25
2022-10-10T13:56:29.304Z,100102.81
2022-10-10T13:59:08.463Z,100089.03
2022-10-10T14:01:39.353Z,100093.13
2022-10-10T14:04:20.249Z,100087.06
2022-10-10T14:06:58.238Z,100077.00
2022-10-10T14:09:33.013Z,100083.38
2022-10-10T14:12:03.747Z,100073.25
2022-10-10T14:14:41.814Z,100063.59
2022-10-10T14:17:11.195Z,100061.72
2022-10-10T14:19:40.261Z,100047.47
2022-10-10T14:22:08.636Z,100051.56
2022-10-10T14:24:37.724Z,100048.19
2022-10-10T14:27:10.009Z,100040.81
2022-10-10T14:29:49.569Z,100042.13
2022-10-10T14:32:18.389Z,100036.97
2022-10-10T14:34:47.332Z,100034.28
2022-10-10T14:37:19.557Z,100019.09
2022-10-10T14:39:48.585Z,100025.53
2022-10-10T14:42:21.167Z,100015.22
2022-10-10T14:44:50.639Z,100010.66
2022-10-10T14:47:20.647Z,100005.16
2022-10-10T14:49:49.217Z,99988.00
2022-10-10T14:52:17.452Z,99993.72
2022-10-10T14:54:45.514Z,99995.75
2022-10-10T14:57:14.560Z,99984.06
2022-10-10T14:59:46.374Z,99986.41
2022-10-10T15:02:23.460Z,99988.19
2022-10-10T15:04:51.625Z,99991.63
2022-10-10T15:07:21.408Z,99993.41
2022-10-10T15:12:41.249Z,99990.50
2022-10-10T15:15:11.522Z,99992.50
2022-10-10T15:17:41.947Z,99987.28
2022-10-10T15:20:12.041Z,99989.75
2022-10-10T15:22:40.553Z,99973.38
2022-10-10T15:25:09.891Z,99980.06
2022-10-10T15:27:38.396Z,99981.34
2022-10-10T15:30:07.812Z,99972.00
2022-10-10T15:32:41.984Z,99974.81
2022-10-10T15:35:17.979Z,99969.22
2022-10-10T15:37:46.619Z,99970.50
2022-10-10T15:40:17.518Z,99967.81
2022-10-10T15:42:45.620Z,99964.69
2022-10-10T15:45:22.672Z,99972.97
2022-10-10T15:48:01.371Z,99961.06
2022-10-10T15:50:29.496Z,99966.53
2022-10-10T15:52:58.057Z,99976.97
2022-10-10T15:55:26.437Z,99965.63
2022-10-10T15:57:54.536Z,99971.69
2022-10-10T16:00:22.756Z,99964.19
2022-10-10T16:02:50.940Z,99965.13
2022-10-10T16:05:20.908Z,99947.94
2022-10-10T16:07:48.953Z,99962.41
2022-10-10T16:10:17.360Z,99963.56
2022-10-10T16:12:45.370Z,99961.78
2022-10-10T16:15:13.773Z,99961.09
2022-10-10T16:17:41.812Z,99957.88
2022-10-10T16:20:10.821Z,99960.06
2022-10-10T16:22:40.321Z,99963.41
2022-10-10T16:25:24.274Z,99953.00
2022-10-10T16:27:53.007Z,99959.28
2022-10-10T16:30:21.766Z,99955.13
2022-10-10T16:32:50.904Z,99972.44
2022-10-10T16:35:38.293Z,99971.00
2022-10-10T16:38:07.846Z,99965.97
2022-10-10T16:40:36.563Z,99966.63
2022-10-10T16:43:04.915Z,99958.44
2022-10-10T16:45:32.970Z,99966.13
2022-10-10T16:48:00.962Z,99958.75
2022-10-10T16:50:39.959Z,99959.44
2022-10-10T16:53:09.732Z,99961.72
2022-10-10T16:55:40.616Z,99957.84
2022-10-10T16:58:09.113Z,99952.34
2022-10-10T17:00:37.573Z,99948.47
2022-10-10T17:03:05.713Z,99948.91
2022-10-10T17:05:33.890Z,99960.91
2022-10-10T17:08:01.912Z,99948.84
2022-10-10T17:10:31.816Z,99959.13
2022-10-10T17:13:00.087Z,99953.59
2022-10-10T17:15:29.707Z,99953.22
2022-10-10T17:17:58.095Z,99957.63
2022-10-10T17:20:27.095Z,99951.88
2022-10-10T17:22:55.355Z,99958.72
2022-10-10T17:25:27.584Z,99946.00
2022-10-10T17:27:57.286Z,99941.69
2022-10-10T17:30:27.011Z,99949.72
2022-10-10T17:32:55.710Z,99940.50
2022-10-10T17:35:24.425Z,99951.44
2022-10-10T17:37:52.596Z,99941.38
2022-10-10T17:40:24.778Z,99939.72
2022-10-10T17:42:52.950Z,99939.31
2022-10-10T17:45:24.189Z,99933.13
2022-10-10T17:47:52.265Z,99940.13
2022-10-10T17:50:30.018Z,99937.00
2022-10-10T17:52:58.134Z,99933.88
2022-10-10T17:55:30.114Z,99939.00
2022-10-10T17:57:58.939Z,99933.47
2022-10-10T18:00:29.674Z,99942.94
2022-10-10T18:02:57.802Z,99943.31
2022-10-10T18:05:25.931Z,99931.75
2022-10-10T18:07:55.324Z,99927.44
2022-10-10T18:10:30.413Z,99918.38
2022-10-10T18:12:58.591Z,99912.78
2022-10-10T18:15:26.911Z,99900.13
2022-10-10T18:17:59.475Z,99905.88
2022-10-10T18:20:27.836Z,99898.19
2022-10-10T18:22:56.161Z,99893.66
2022-10-10T18:25:25.766Z,99887.81
2022-10-10T18:27:54.065Z,99892.75
2022-10-10T18:30:22.883Z,99886.78
2022-10-10T18:32:52.338Z,99887.31
2022-10-10T18:35:22.211Z,99880.66
2022-10-10T18:37:51.012Z,99877.84
2022-10-10T18:40:20.185Z,99876.22
2022-10-10T18:42:48.747Z,99880.31
2022-10-10T18:45:16.755Z,99872.50
2022-10-10T18:47:44.760Z,99870.41
2022-10-10T18:50:12.743Z,99864.00
2022-10-10T18:52:43.021Z,99859.22
2022-10-10T18:55:17.517Z,99852.81
2022-10-10T18:57:49.237Z,99845.56
2022-10-10T19:00:19.227Z,99838.72
2022-10-10T19:02:47.276Z,99832.78
2022-10-10T19:05:15.324Z,99831.94
2022-10-10T19:07:46.349Z,99831.94
2022-10-10T19:10:14.526Z,99829.03
2022-10-10T19:12:47.226Z,99816.31
2022-10-10T19:15:15.797Z,99823.69
2022-10-10T19:17:43.883Z,99821.22
2022-10-10T19:20:12.997Z,99821.66
2022-10-10T19:22:41.855Z,99809.31
2022-10-10T19:25:11.536Z,99811.97
2022-10-10T19:27:39.645Z,99805.00
2022-10-10T19:30:09.201Z,99801.94
2022-10-10T19:32:37.474Z,99804.03
2022-10-10T19:35:05.995Z,99808.22
2022-10-10T19:37:34.428Z,99805.97
2022-10-10T19:40:02.452Z,99800.03
2022-10-10T19:42:33.318Z,99800.72
2022-10-10T19:45:01.336Z,99807.56
2022-10-10T19:47:29.348Z,99812.78
2022-10-10T19:49:57.707Z,99799.44
2022-10-10T19:52:25.795Z,99800.91
2022-10-10T19:54:54.892Z,99786.56
2022-10-10T19:57:22.878Z,99800.00
2022-10-10T19:59:53.052Z,99793.91
2022-10-10T20:02:21.150Z,99796.91
2022-10-10T20:04:49.802Z,99797.56
2022-10-10T20:07:18.060Z,99792.03
2022-10-10T20:09:48.713Z,99789.44
2022-10-10T20:12:16.715Z,99786.81
2022-10-10T20:14:44.736Z,99788.31
2022-10-10T20:17:14.497Z,99783.22
2022-10-10T20:19:42.986Z,99792.28
2022-10-10T20:22:11.044Z,99787.63
2022-10-10T20:24:39.593Z,99798.16
2022-10-10T20:27:07.867Z,99797.97
2022-10-10T20:29:36.193Z,99785.28
2022-10-10T20:32:05.385Z,99789.41
2022-10-10T20:34:34.904Z,99785.53
2022-10-10T20:37:02.978Z,99780.84
2022-10-10T20:39:30.993Z,99785.00
2022-10-10T20:41:58.964Z,99774.94
2022-10-10T20:44:26.983Z,99778.88
2022-10-10T20:46:55.565Z,99775.63
2022-10-10T20:49:24.263Z,99770.09
2022-10-10T20:51:54.538Z,99768.22
2022-10-10T20:54:24.855Z,99763.91
2022-10-10T20:56:53.349Z,99767.84
2022-10-10T20:59:24.462Z,99770.72
2022-10-10T21:01:53.286Z,99757.81
2022-10-10T21:04:21.347Z,99760.09
2022-10-10T21:06:50.153Z,99742.63
2022-10-10T21:09:19.796Z,99751.88
2022-10-10T21:11:51.160Z,99754.78
2022-10-10T21:14:19.730Z,99743.72
2022-10-10T21:16:48.606Z,99747.22
2022-10-10T21:19:16.858Z,99740.03
2022-10-10T21:21:45.797Z,99732.84
2022-10-10T21:24:15.814Z,99733.06
2022-10-10T21:26:45.565Z,99729.78
2022-10-10T21:29:13.640Z,99723.81
2022-10-10T21:31:59.969Z,99727.53
2022-10-10T21:34:28.072Z,99733.09
2022-10-10T21:36:56.292Z,99729.63
2022-10-10T21:39:24.675Z,99725.31
2022-10-10T21:41:55.515Z,99721.59
2022-10-10T21:44:23.476Z,99721.81
2022-10-10T21:46:59.902Z,99719.97
2022-10-10T21:49:27.864Z,99712.75
2022-10-10T21:51:56.613Z,99716.25
2022-10-10T21:54:24.677Z,99706.59
2022-10-10T21:56:54.068Z,99706.59
2022-10-10T21:59:22.167Z,99704.72
2022-10-10T22:01:50.151Z,99703.09
2022-10-10T22:04:18.144Z,99694.63
2022-10-10T22:06:46.535Z,99699.19
2022-10-10T22:09:14.523Z,99701.59
2022-10-10T22:11:42.588Z,99696.66
2022-10-10T22:14:11.998Z,99692.72
2022-10-10T22:16:40.079Z,99687.78
2022-10-10T22:19:08.124Z,99677.06
2022-10-10T22:21:36.568Z,99694.25
2022-10-10T22:24:07.291Z,99686.63
2022-10-10T22:26:36.300Z,99678.97
2022-10-10T22:29:04.593Z,99683.66
2022-10-10T22:31:37.916Z,99669.03
2022-10-10T22:34:07.016Z,99671.72
2022-10-10T22:36:35.588Z,99674.31
2022-10-10T22:39:03.653Z,99662.56
2022-10-10T22:41:31.839Z,99661.09
2022-10-10T22:43:59.862Z,99666.25
2022-10-10T22:46:28.031Z,99664.97
2022-10-10T22:48:57.643Z,99661.28
2022-10-10T22:51:26.533Z,99657.53
2022-10-10T22:53:54.672Z,99666.97
2022-10-10T22:56:24.160Z,99664.31
2022-10-10T22:58:52.775Z,99652.94
2022-10-10T23:01:23.321Z,99648.84
2022-10-10T23:03:54.349Z,99658.91
2022-10-10T23:06:24.033Z,99661.34
2022-10-10T23:08:52.058Z,99654.13
2022-10-10T23:11:20.073Z,99659.28
2022-10-10T23:13:48.192Z,99654.28
2022-10-10T23:16:16.262Z,99652.41
2022-10-10T23:18:45.393Z,99647.88
2022-10-10T23:21:13.476Z,99636.34
2022-10-10T23:23:43.369Z,99648.25
2022-10-10T23:26:12.198Z,99640.00
2022-10-10T23:28:45.279Z,99644.31
2022-10-10T23:31:14.435Z,99654.44
2022-10-10T23:33:42.478Z,99658.38
2022-10-10T23:36:13.036Z,99668.03
2022-10-10T23:38:43.160Z,99665.59
2022-10-10T23:41:12.939Z,99661.03
2022-10-10T23:43:44.733Z,99661.03
2022-10-10T23:46:13.402Z,99657.56
2022-10-10T23:48:41.540Z,99653.66
2022-10-10T23:51:10.019Z,99655.31
2022-10-10T23:53:38.602Z,99673.22
2022-10-10T23:56:08.838Z,99678.22
2022-10-10T23:58:43.092Z,99688.94
